createdAt,value
2022-12-24T00:01:12.845Z,0.17
2022-12-24T00:05:12.926Z,0.17
2022-12-24T00:09:10.080Z,0.17
2022-12-24T00:13:09.900Z,0.17
2022-12-24T00:17:10.079Z,0.17
2022-12-24T00:21:09.664Z,0.17
2022-12-24T00:25:09.412Z,0.17
2022-12-24T00:29:09.024Z,0.17
2022-12-24T00:33:09.375Z,0.17
2022-12-24T00:37:09.416Z,0.17
2022-12-24T00:41:08.913Z,0.17
2022-12-24T00:45:09.747Z,0.17
2022-12-24T00:49:09.521Z,0.17
2022-12-24T00:53:09.417Z,0.17
2022-12-24T00:57:09.113Z,0.17
2022-12-24T01:01:14.727Z,0.17
2022-12-24T01:05:09.437Z,0.17
2022-12-24T01:09:08.979Z,0.17
2022-12-24T01:13:09.800Z,0.17
2022-12-24T01:17:09.827Z,0.17
2022-12-24T01:21:09.218Z,0.17
2022-12-24T01:25:08.889Z,0.17
2022-12-24T01:29:09.721Z,0.17
2022-12-24T01:33:09.636Z,0.17
2022-12-24T01:37:09.193Z,0.17
2022-12-24T01:41:09.200Z,0.17
2022-12-24T01:45:14.816Z,0.17
2022-12-24T01:49:09.705Z,0.17
2022-12-24T01:53:09.585Z,0.17
2022-12-24T01:57:09.791Z,0.17
2022-12-24T02:01:12.450Z,0.17
2022-12-24T02:05:09.054Z,0.17
2022-12-24T02:09:08.943Z,0.17
2022-12-24T02:13:09.719Z,0.17
2022-12-24T02:17:09.842Z,0.17
2022-12-24T02:21:09.152Z,0.17
2022-12-24T02:25:09.042Z,0.17
2022-12-24T02:29:09.737Z,0.17
2022-12-24T02:33:09.527Z,0.17
2022-12-24T02:37:09.203Z,0.17
2022-12-24T02:41:13.228Z,0.17
2022-12-24T02:45:08.975Z,0.17
2022-12-24T02:49:09.629Z,0.17
2022-12-24T02:53:09.422Z,0.17
2022-12-24T02:57:09.078Z,0.17
2022-12-24T03:01:12.685Z,0.17
2022-12-24T03:05:08.938Z,0.17
2022-12-24T03:09:09.550Z,0.17
2022-12-24T03:13:09.353Z,0.17
2022-12-24T03:17:09.505Z,0.17
2022-12-24T03:21:09.651Z,0.17
2022-12-24T03:25:09.208Z,0.17
2022-12-24T03:29:09.179Z,0.17
2022-12-24T03:33:09.183Z,0.17
2022-12-24T03:37:09.447Z,0.17
2022-12-24T03:41:09.526Z,0.17
2022-12-24T03:45:09.101Z,0.17
2022-12-24T03:49:17.584Z,0.17
2022-12-24T03:53:09.561Z,0.17
2022-12-24T03:57:09.529Z,0.17
2022-12-24T04:01:12.847Z,0.17
2022-12-24T04:05:09.469Z,0.17
2022-12-24T04:09:09.186Z,0.17
2022-12-24T04:13:09.671Z,0.17
2022-12-24T04:17:10.253Z,0.17
2022-12-24T04:21:08.971Z,0.17
2022-12-24T04:25:09.824Z,0.17
2022-12-24T04:29:09.535Z,0.17
2022-12-24T04:33:09.625Z,0.17
2022-12-24T04:37:08.840Z,0.17
2022-12-24T04:41:09.739Z,0.17
2022-12-24T04:45:09.517Z,0.17
2022-12-24T04:49:09.185Z,0.17
2022-12-24T04:53:09.861Z,0.17
2022-12-24T04:57:09.337Z,0.17
2022-12-24T05:01:12.877Z,0.17
2022-12-24T05:05:09.241Z,0.17
2022-12-24T05:09:09.926Z,0.17
2022-12-24T05:13:09.599Z,0.17
2022-12-24T05:17:09.886Z,0.17
2022-12-24T05:21:09.753Z,0.17
2022-12-24T05:25:09.376Z,0.17
2022-12-24T05:29:09.542Z,0.17
2022-12-24T05:33:09.139Z,0.17
2022-12-24T05:37:09.809Z,0.17
2022-12-24T05:41:09.295Z,0.17
2022-12-24T05:45:09.059Z,0.17
2022-12-24T05:49:09.600Z,0.17
2022-12-24T05:53:09.453Z,0.17
2022-12-24T05:57:09.289Z,0.17
2022-12-24T06:01:11.950Z,0.17
2022-12-24T06:05:14.663Z,0.17
2022-12-24T06:09:09.914Z,0.17
2022-12-24T06:13:09.591Z,0.17
2022-12-24T06:17:09.659Z,0.17
2022-12-24T06:21:10.180Z,0.17
2022-12-24T06:25:09.742Z,0.17
2022-12-24T06:29:09.191Z,0.17
2022-12-24T06:33:09.142Z,0.17
2022-12-24T06:37:14.162Z,0.17
2022-12-24T06:41:09.800Z,0.17
2022-12-24T06:45:19.010Z,0.17
2022-12-24T06:49:09.181Z,0.17
2022-12-24T06:53:08.943Z,0.17
2022-12-24T06:57:09.607Z,0.17
2022-12-24T07:01:10.105Z,0.17
2022-12-24T07:05:16.809Z,0.17
2022-12-24T07:09:09.616Z,0.17
2022-12-24T07:13:09.222Z,0.17
2022-12-24T07:17:10.946Z,0.17
2022-12-24T07:21:09.738Z,0.17
2022-12-24T07:25:09.397Z,0.17
2022-12-24T07:29:13.352Z,0.17
2022-12-24T07:33:09.059Z,0.17
2022-12-24T07:37:09.613Z,0.17
2022-12-24T07:41:09.361Z,0.17
2022-12-24T07:45:09.745Z,0.17
2022-12-24T07:49:09.323Z,0.17
2022-12-24T07:53:09.983Z,0.17
2022-12-24T07:57:15.073Z,0.17
2022-12-24T08:01:09.221Z,0.17
2022-12-24T08:05:09.557Z,0.17
2022-12-24T08:09:09.181Z,0.17
2022-12-24T08:13:09.923Z,0.17
2022-12-24T08:17:10.092Z,0.17
2022-12-24T08:21:09.500Z,0.17
2022-12-24T08:25:08.969Z,0.17
2022-12-24T08:29:09.580Z,0.17
2022-12-24T08:33:09.024Z,0.17
2022-12-24T08:37:10.057Z,0.17
2022-12-24T08:41:09.918Z,0.17
2022-12-24T08:45:09.505Z,0.17
2022-12-24T08:49:08.753Z,0.17
2022-12-24T08:53:09.476Z,0.17
2022-12-24T08:57:08.792Z,0.17
2022-12-24T09:01:13.045Z,0.17
2022-12-24T09:05:09.531Z,0.17
2022-12-24T09:09:09.362Z,0.17
2022-12-24T09:13:09.126Z,0.17
2022-12-24T09:17:09.441Z,0.17
2022-12-24T09:21:10.721Z,0.17
2022-12-24T09:25:09.121Z,0.17
2022-12-24T09:29:09.098Z,0.17
2022-12-24T09:33:10.153Z,0.17
2022-12-24T09:37:09.427Z,0.17
2022-12-24T09:41:13.638Z,0.17
2022-12-24T09:45:09.510Z,0.17
2022-12-24T09:49:09.339Z,0.17
2022-12-24T09:53:09.144Z,0.17
2022-12-24T09:57:09.594Z,0.17
2022-12-24T10:01:18.944Z,0.17
2022-12-24T10:05:09.752Z,0.17
2022-12-24T10:09:09.488Z,0.17
2022-12-24T10:13:12.691Z,0.17
2022-12-24T10:17:10.307Z,0.17
2022-12-24T10:21:09.622Z,0.17
2022-12-24T10:25:13.397Z,0.17
2022-12-24T10:29:09.175Z,0.17
2022-12-24T10:33:09.974Z,0.17
2022-12-24T10:37:17.527Z,0.17
2022-12-24T10:41:09.400Z,0.17
2022-12-24T10:45:09.840Z,0.17
2022-12-24T10:49:13.778Z,0.17
2022-12-24T10:53:09.459Z,0.17
2022-12-24T10:57:09.110Z,0.17
2022-12-24T11:01:21.734Z,0.17
2022-12-24T11:05:09.431Z,0.17
2022-12-24T11:09:09.418Z,0.17
2022-12-24T11:13:58.454Z,0.17
2022-12-24T11:17:10.110Z,0.17
2022-12-24T11:21:09.465Z,0.17
2022-12-24T11:25:13.085Z,0.17
2022-12-24T11:29:09.721Z,0.17
2022-12-24T11:33:09.141Z,0.17
2022-12-24T11:37:14.590Z,0.17
2022-12-24T11:41:09.348Z,0.17
2022-12-24T11:45:09.828Z,0.17
2022-12-24T11:49:17.258Z,0.17
2022-12-24T11:53:10.094Z,0.61
2022-12-24T11:57:09.584Z,0.61
2022-12-24T12:01:16.047Z,0.61
2022-12-24T12:05:10.415Z,0.61
2022-12-24T12:09:09.133Z,0.61
2022-12-24T12:13:14.931Z,0.61
2022-12-24T12:17:09.775Z,0.61
2022-12-24T12:21:09.607Z,0.61
2022-12-24T12:25:17.415Z,0.61
2022-12-24T12:29:09.358Z,0.61
2022-12-24T12:33:10.626Z,0.61
2022-12-24T12:37:14.482Z,0.61
2022-12-24T12:41:09.088Z,0.61
2022-12-24T12:45:09.554Z,0.61
2022-12-24T12:49:14.452Z,0.61
2022-12-24T12:53:09.745Z,0.61
2022-12-24T12:57:09.560Z,0.31
2022-12-24T13:01:12.974Z,0.31
2022-12-24T13:05:09.705Z,0.1
2022-12-24T13:09:09.391Z,5.51
2022-12-24T13:13:11.348Z,5.51
2022-12-24T13:17:10.047Z,3.86
2022-12-24T13:21:09.882Z,0.03
2022-12-24T13:25:14.855Z,0.03
2022-12-24T13:29:09.108Z,0.03
2022-12-24T13:33:09.741Z,0.02
2022-12-24T13:37:09.204Z,0.02
2022-12-24T13:41:09.018Z,0.02
2022-12-24T13:45:09.946Z,1.86
2022-12-24T13:49:09.134Z,1.86
2022-12-24T13:53:16.368Z,0.02
2022-12-24T13:57:09.167Z,1.62
2022-12-24T14:01:13.743Z,0.02
2022-12-24T14:05:09.022Z,0.01
2022-12-24T14:09:09.737Z,1.44
2022-12-24T14:13:13.212Z,1.44
2022-12-24T14:17:09.973Z,1.37
2022-12-24T14:21:09.859Z,1.31
2022-12-24T14:25:09.616Z,1.31
2022-12-24T14:29:08.953Z,0.01
2022-12-24T14:33:09.947Z,0.01
2022-12-24T14:37:09.170Z,0.01
2022-12-24T14:41:09.793Z,0.01
2022-12-24T14:45:09.927Z,0.01
2022-12-24T14:49:09.043Z,0.01
2022-12-24T14:54:04.547Z,0.01
2022-12-24T14:57:09.036Z,0.01
2022-12-24T15:01:14.195Z,0.01
2022-12-24T15:05:09.767Z,0.01
2022-12-24T15:09:09.285Z,0.01
2022-12-24T15:13:09.914Z,0.01
2022-12-24T15:17:10.101Z,0.01
2022-12-24T15:21:15.772Z,0.01
2022-12-24T15:25:09.481Z,0.01
2022-12-24T15:29:14.772Z,0.01
2022-12-24T15:33:09.622Z,0.01
2022-12-24T15:37:09.298Z,0.01
2022-12-24T15:41:09.268Z,0.01
2022-12-24T15:45:09.208Z,0.01
2022-12-24T15:49:09.597Z,0.01
2022-12-24T15:53:33.090Z,0.01
2022-12-24T15:57:08.936Z,0.01
2022-12-24T16:01:10.101Z,0.01
2022-12-24T16:05:10.174Z,0.01
2022-12-24T16:09:09.356Z,0.01
2022-12-24T16:13:11.655Z,0.01
2022-12-24T16:17:10.063Z,0.01
2022-12-24T16:21:09.349Z,0.01
2022-12-24T16:25:09.338Z,0.01
2022-12-24T16:29:19.542Z,0.01
2022-12-24T16:33:09.345Z,0.01
2022-12-24T16:37:09.720Z,0.01
2022-12-24T16:41:17.160Z,0.01
2022-12-24T16:45:09.645Z,0.01
2022-12-24T16:49:09.394Z,0.01
2022-12-24T16:53:15.660Z,0.01
2022-12-24T16:57:09.947Z,0.01
2022-12-24T17:01:12.823Z,0.01
2022-12-24T17:05:09.765Z,0.01
2022-12-24T17:09:09.284Z,0.01
2022-12-24T17:13:08.970Z,0.01
2022-12-24T17:17:10.055Z,0.01
2022-12-24T17:21:15.285Z,0.01
2022-12-24T17:25:09.580Z,0.01
2022-12-24T17:29:09.025Z,0.01
2022-12-24T17:33:14.666Z,0.01
2022-12-24T17:37:09.362Z,0.01
2022-12-24T17:41:09.089Z,0.01
2022-12-24T17:45:09.709Z,0.01
2022-12-24T17:49:09.682Z,0.01
2022-12-24T17:53:10.034Z,0.01
2022-12-24T17:57:09.495Z,0.01
2022-12-24T18:01:18.921Z,0.01
2022-12-24T18:05:09.900Z,0.01
2022-12-24T18:09:09.269Z,0.01
2022-12-24T18:13:13.963Z,0.01
2022-12-24T18:17:09.803Z,0.01
2022-12-24T18:21:18.496Z,0.01
2022-12-24T18:25:09.740Z,0.01
2022-12-24T18:29:09.253Z,0.01
2022-12-24T18:33:09.645Z,0.01
2022-12-24T18:37:17.271Z,0.01
2022-12-24T18:41:09.515Z,0.01
2022-12-24T18:45:10.854Z,0.01
2022-12-24T18:49:09.490Z,0.01
2022-12-24T18:53:14.168Z,0.01
2022-12-24T18:57:09.098Z,0.01
2022-12-24T19:01:13.150Z,0.01
2022-12-24T19:05:10.074Z,0.01
2022-12-24T19:09:54.492Z,0.01
2022-12-24T19:13:09.552Z,0.01
2022-12-24T19:17:10.394Z,0.01
2022-12-24T19:21:09.632Z,0.01
2022-12-24T19:25:09.033Z,0.01
2022-12-24T19:29:11.463Z,0.01
2022-12-24T19:33:09.318Z,0.01
2022-12-24T19:37:09.808Z,0.01
2022-12-24T19:41:09.504Z,0.01
2022-12-24T19:45:08.942Z,0.01
2022-12-24T19:49:09.632Z,0.01
2022-12-24T19:53:09.227Z,0.01
2022-12-24T19:57:09.128Z,0.01
2022-12-24T20:01:15.594Z,0.01
2022-12-24T20:05:08.987Z,0.01
2022-12-24T20:09:10.007Z,0.01
2022-12-24T20:13:17.105Z,0.01
2022-12-24T20:17:10.092Z,0.01
2022-12-24T20:21:09.061Z,0.01
2022-12-24T20:25:09.833Z,0.01
2022-12-24T20:29:09.609Z,0.01
2022-12-24T20:33:09.724Z,0.01
2022-12-24T20:37:09.632Z,0.01
2022-12-24T20:41:09.000Z,0.01
2022-12-24T20:45:09.541Z,0.01
2022-12-24T20:49:09.239Z,0.01
2022-12-24T20:53:09.207Z,0.01
2022-12-24T20:57:25.191Z,0.01
2022-12-24T21:01:12.651Z,0.01
2022-12-24T21:05:13.662Z,0.01
2022-12-24T21:09:09.563Z,0.01
2022-12-24T21:13:09.411Z,0.01
2022-12-24T21:17:15.423Z,0.01
2022-12-24T21:21:09.829Z,0.01
2022-12-24T21:25:09.099Z,0.01
2022-12-24T21:29:09.732Z,0.01
2022-12-24T21:33:09.503Z,0.01
2022-12-24T21:37:09.237Z,0.01
2022-12-24T21:41:09.847Z,0.01
2022-12-24T21:45:09.411Z,0.01
2022-12-24T21:49:09.738Z,0.01
2022-12-24T21:53:09.304Z,0.01
2022-12-24T21:57:09.857Z,0.01
2022-12-24T22:01:12.468Z,0.01
2022-12-24T22:05:09.779Z,0.01
2022-12-24T22:09:36.400Z,0.01
2022-12-24T22:13:10.093Z,0.01
2022-12-24T22:17:10.408Z,0.01
2022-12-24T22:21:09.201Z,0.01
2022-12-24T22:25:09.837Z,0.01
2022-12-24T22:29:09.776Z,0.01
2022-12-24T22:33:09.376Z,0.01
2022-12-24T22:37:09.139Z,0.01
2022-12-24T22:41:09.281Z,0.01
2022-12-24T22:45:09.114Z,0.01
2022-12-24T22:49:08.982Z,0.01
2022-12-24T22:53:09.658Z,0.01
2022-12-24T22:57:14.974Z,0.01
2022-12-24T23:01:09.669Z,0.01
2022-12-24T23:05:09.639Z,0.01
2022-12-24T23:09:09.384Z,0.01
2022-12-24T23:13:14.629Z,0.01
2022-12-24T23:17:09.959Z,0.01
2022-12-24T23:21:09.387Z,0.01
2022-12-24T23:25:08.991Z,0.01
2022-12-24T23:29:09.852Z,0.01
2022-12-24T23:33:09.362Z,0.01
2022-12-24T23:37:09.145Z,0.01
2022-12-24T23:41:09.858Z,0.01
2022-12-24T23:45:17.400Z,0.01
2022-12-24T23:49:09.087Z,0.01
2022-12-24T23:53:09.760Z,0.01
2022-12-24T23:57:09.375Z,0.01
